Gamlingay, United Kingdom
Current Conditions -  °F | °C
As of 7:50 AM on Tuesday 21 Oct 2014 (Local Time) from EGSC Reporting Station
Scattered Clouds Scattered Clouds  
Wind Chill: 14°   Ceiling: Unl
Heat Index: 14°   Visibility: 6mi
Dew Point: 11°   Wind: 15mph
Humidity: 82%   Direction: 200°SSW
Pressure: 29.47"   Gusts: NA
Location:  52.16°N, 0.19°W
Report Text: EGSC 210650Z 20013KT 150V250 9999 FEW013 SCT017 14/11 Q0998
Loading
Personal Weather Stations






























Interactive Weather Map
Tropical Storm Tracking
New forecast layout! Learn more

10-Day Weather Forecast

Advertisements
Track Severe Weather on mobile